Time;durP1;ratioP1;P1;durP2;ratioP2;P2;SDS_P1;SDS_P2;PMS_P1;PMS_P2;Temp;Humidity;BMP_temperature;BMP_pressure;BME280_temperature;BME280_humidity;BME280_pressure;Samples;Min_cycle;Max_cycle;Signal;HPM_P1;HPM_P2
2023/07/19 00:00:07;;;;;;;6.45;4.65;;;21.30;86.00;;;;;;4994368;28;20113;-52
2023/07/19 00:02:53;;;;;;;6.88;4.35;;;21.30;86.50;;;;;;4994177;28;20030;-54
2023/07/19 00:05:39;;;;;;;5.20;4.50;;;21.40;87.70;;;;;;4996322;28;20042;-55
2023/07/19 00:08:25;;;;;;;8.65;4.30;;;21.30;87.50;;;;;;4996771;28;20054;-53
2023/07/19 00:11:10;;;;;;;9.10;4.50;;;21.40;87.70;;;;;;4994654;28;20033;-51
2023/07/19 00:13:56;;;;;;;8.73;4.22;;;21.30;87.40;;;;;;4995175;28;20026;-52
2023/07/19 00:16:42;;;;;;;5.10;3.92;;;21.30;87.70;;;;;;4996081;28;20022;-53
2023/07/19 00:19:28;;;;;;;6.57;4.10;;;21.40;88.10;;;;;;4994457;28;20062;-55
2023/07/19 00:22:14;;;;;;;10.70;4.20;;;21.30;89.10;;;;;;5003012;28;20035;-52
2023/07/19 00:25:00;;;;;;;6.18;4.13;;;21.20;89.40;;;;;;4993729;28;20034;-52
2023/07/19 00:27:48;;;;;;;6.82;4.07;;;21.10;89.30;;;;;;4994954;28;20176;-54
2023/07/19 00:30:34;;;;;;;6.38;4.28;;;21.10;89.60;;;;;;4995032;28;20026;-54
2023/07/19 00:33:20;;;;;;;6.50;4.03;;;21.00;89.10;;;;;;4993547;28;20031;-50
2023/07/19 00:36:06;;;;;;;6.82;4.18;;;20.90;89.00;;;;;;4993444;28;20506;-55
2023/07/19 00:38:52;;;;;;;9.63;4.70;;;20.90;89.40;;;;;;4993510;28;20109;-49
2023/07/19 00:41:39;;;;;;;5.80;4.28;;;20.80;89.90;;;;;;4995563;28;20399;-52
2023/07/19 00:44:25;;;;;;;5.88;4.05;;;20.70;90.10;;;;;;4993215;28;20506;-50
2023/07/19 00:47:11;;;;;;;7.82;4.47;;;20.70;90.20;;;;;;4994068;28;20038;-52
2023/07/19 00:49:57;;;;;;;5.45;3.95;;;20.70;90.00;;;;;;4994747;28;20451;-47
2023/07/19 00:52:43;;;;;;;5.68;4.07;;;20.60;89.80;;;;;;4995160;28;20035;-49
2023/07/19 00:55:29;;;;;;;5.80;4.07;;;20.50;89.00;;;;;;4995328;28;20029;-55
2023/07/19 00:58:17;;;;;;;8.82;4.32;;;20.30;88.70;;;;;;4995303;28;20306;-51
2023/07/19 01:01:05;;;;;;;8.80;4.72;;;20.30;88.40;;;;;;4993365;28;20495;-56
2023/07/19 01:03:51;;;;;;;6.68;4.30;;;20.10;87.60;;;;;;4995110;28;20030;-54
2023/07/19 01:06:37;;;;;;;5.68;3.90;;;20.10;87.80;;;;;;4994388;28;20065;-54
2023/07/19 01:09:26;;;;;;;8.38;4.32;;;20.10;87.20;;;;;;4994214;28;20030;-55
2023/07/19 01:12:12;;;;;;;7.05;4.50;;;20.10;87.90;;;;;;4994409;28;20045;-52
2023/07/19 01:14:59;;;;;;;4.47;4.07;;;20.00;88.90;;;;;;4992797;28;20033;-50
2023/07/19 01:17:45;;;;;;;6.88;4.10;;;19.90;90.20;;;;;;4993472;28;20110;-51
2023/07/19 01:20:31;;;;;;;5.60;4.20;;;20.10;90.50;;;;;;4993630;28;20031;-55
2023/07/19 01:23:16;;;;;;;5.25;3.90;;;20.20;90.70;;;;;;4994212;28;20037;-54
2023/07/19 01:26:03;;;;;;;6.13;4.63;;;20.10;90.90;;;;;;4993631;28;20026;-53
2023/07/19 01:28:49;;;;;;;6.18;4.07;;;20.20;91.10;;;;;;4992379;28;20069;-53
2023/07/19 01:31:35;;;;;;;7.10;4.38;;;20.20;90.90;;;;;;4994561;28;20034;-55
2023/07/19 01:34:21;;;;;;;5.63;4.20;;;20.10;91.10;;;;;;4993447;28;20447;-50
2023/07/19 01:37:07;;;;;;;5.43;4.18;;;20.10;91.50;;;;;;4994277;28;20049;-52
2023/07/19 01:39:53;;;;;;;7.22;4.10;;;20.10;91.90;;;;;;4994502;28;20045;-52
2023/07/19 01:42:39;;;;;;;6.10;4.18;;;20.10;92.30;;;;;;4993398;28;20030;-52
2023/07/19 01:45:25;;;;;;;11.18;4.85;;;19.90;92.70;;;;;;4992346;28;20041;-53
2023/07/19 01:48:11;;;;;;;4.82;4.18;;;19.90;93.10;;;;;;4993440;28;20116;-54
2023/07/19 01:50:57;;;;;;;11.43;4.40;;;19.80;93.40;;;;;;4993778;28;20034;-48
2023/07/19 01:53:43;;;;;;;6.28;4.55;;;19.70;93.60;;;;;;4992544;28;20022;-52
2023/07/19 01:56:29;;;;;;;7.68;4.00;;;19.70;93.60;;;;;;4994167;28;20105;-47
2023/07/19 01:59:15;;;;;;;6.47;4.63;;;19.60;94.00;;;;;;4994324;28;20105;-55
2023/07/19 02:02:01;;;;;;;5.15;4.10;;;19.60;94.20;;;;;;4993916;28;20022;-51
2023/07/19 02:04:47;;;;;;;7.22;4.32;;;19.60;94.50;;;;;;4994004;28;20026;-48
2023/07/19 02:07:33;;;;;;;8.05;4.90;;;19.50;94.20;;;;;;4992722;28;20113;-52
2023/07/19 02:10:19;;;;;;;7.28;4.00;;;19.50;94.30;;;;;;4993943;28;20035;-49
2023/07/19 02:13:05;;;;;;;7.97;4.47;;;19.50;94.70;;;;;;4994240;28;20022;-51
2023/07/19 02:15:51;;;;;;;6.80;4.28;;;19.50;94.90;;;;;;4994016;28;20053;-52
2023/07/19 02:18:37;;;;;;;5.40;3.85;;;19.50;94.70;;;;;;4991457;28;20105;-49
2023/07/19 02:21:23;;;;;;;5.88;3.88;;;19.30;95.00;;;;;;4993305;28;20470;-49
2023/07/19 02:24:09;;;;;;;7.32;4.55;;;19.30;95.00;;;;;;4995116;28;20037;-51
2023/07/19 02:26:55;;;;;;;6.57;4.40;;;19.30;95.60;;;;;;4991933;28;20026;-54
2023/07/19 02:29:40;;;;;;;8.45;4.10;;;19.20;95.60;;;;;;4992427;28;20026;-53
2023/07/19 02:32:26;;;;;;;6.55;4.20;;;19.20;95.90;;;;;;4993840;28;20042;-50
2023/07/19 02:35:12;;;;;;;10.10;4.13;;;19.20;95.40;;;;;;4992650;28;20031;-48
2023/07/19 02:37:58;;;;;;;11.77;4.28;;;19.00;94.40;;;;;;4991295;28;20026;-51
2023/07/19 02:40:44;;;;;;;7.70;3.90;;;18.80;93.60;;;;;;4993249;28;20038;-52
2023/07/19 02:43:30;;;;;;;6.50;3.83;;;18.60;93.80;;;;;;4993689;28;20042;-55
2023/07/19 02:46:16;;;;;;;8.80;4.00;;;18.70;94.10;;;;;;5003831;28;20040;-50
2023/07/19 02:49:02;;;;;;;5.75;3.72;;;18.70;94.30;;;;;;4991259;28;20037;-51
2023/07/19 02:51:48;;;;;;;7.20;4.45;;;18.80;93.70;;;;;;4992189;28;20085;-49
2023/07/19 02:54:35;;;;;;;7.40;4.22;;;18.70;93.90;;;;;;4991147;28;20049;-51
2023/07/19 02:57:21;;;;;;;7.03;4.03;;;18.60;95.00;;;;;;4993150;28;20062;-51
2023/07/19 03:00:07;;;;;;;7.95;3.92;;;18.60;96.10;;;;;;4992240;28;20030;-55
2023/07/19 03:02:54;;;;;;;7.55;4.55;;;18.60;96.60;;;;;;4992476;28;20395;-50
2023/07/19 03:05:44;;;;;;;6.97;4.28;;;18.70;96.70;;;;;;5003461;28;20109;-54
2023/07/19 03:08:30;;;;;;;7.03;4.40;;;18.80;97.00;;;;;;4993074;28;20026;-52
2023/07/19 03:11:16;;;;;;;9.45;5.72;;;19.00;97.00;;;;;;4993155;28;20495;-54
2023/07/19 03:14:02;;;;;;;7.38;4.65;;;19.00;96.80;;;;;;4993133;28;20030;-53
2023/07/19 03:16:48;;;;;;;10.45;4.57;;;18.90;97.00;;;;;;4992958;28;20019;-52
2023/07/19 03:19:35;;;;;;;12.35;4.95;;;18.80;97.20;;;;;;4992628;28;20106;-50
2023/07/19 03:22:21;;;;;;;7.03;4.55;;;18.80;97.10;;;;;;5003750;28;20446;-50
2023/07/19 03:25:07;;;;;;;12.05;5.00;;;18.80;97.20;;;;;;4992308;28;20026;-52
2023/07/19 03:27:53;;;;;;;9.52;4.53;;;18.80;97.30;;;;;;4991902;28;20030;-53
2023/07/19 03:30:39;;;;;;;6.75;4.93;;;18.80;97.30;;;;;;4993077;28;20092;-50
2023/07/19 03:33:26;;;;;;;7.13;4.60;;;18.80;97.20;;;;;;4993324;28;20073;-52
2023/07/19 03:36:12;;;;;;;8.60;4.50;;;18.70;96.50;;;;;;4993209;28;20038;-52
2023/07/19 03:38:58;;;;;;;8.23;4.57;;;18.80;96.70;;;;;;5003835;28;20050;-52
2023/07/19 03:41:44;;;;;;;7.72;5.38;;;18.70;96.30;;;;;;4993220;28;20057;-53
2023/07/19 03:44:30;;;;;;;7.82;4.60;;;18.70;95.50;;;;;;4990654;28;20033;-51
2023/07/19 03:47:16;;;;;;;9.55;5.30;;;18.70;95.40;;;;;;4992843;28;20034;-49
2023/07/19 03:50:02;;;;;;;7.63;4.47;;;18.80;95.30;;;;;;4991779;28;20117;-49
2023/07/19 03:52:47;;;;;;;8.00;4.55;;;18.80;95.20;;;;;;4992199;28;20027;-51
2023/07/19 03:55:34;;;;;;;7.95;5.05;;;18.80;95.50;;;;;;4996734;28;20081;-48
2023/07/19 03:58:21;;;;;;;7.57;4.50;;;18.90;95.80;;;;;;4995756;28;20038;-51
2023/07/19 04:01:07;;;;;;;10.90;4.70;;;19.00;95.70;;;;;;4996662;28;20030;-52
2023/07/19 04:03:53;;;;;;;6.82;4.32;;;19.00;95.20;;;;;;4994355;28;20041;-55
2023/07/19 04:06:39;;;;;;;7.50;5.00;;;19.00;95.70;;;;;;4993017;28;20035;-55
2023/07/19 04:09:25;;;;;;;10.93;4.57;;;19.10;95.60;;;;;;4995070;28;20495;-53
2023/07/19 04:12:11;;;;;;;12.05;4.47;;;19.10;95.70;;;;;;4995586;28;20027;-51
2023/07/19 04:14:57;;;;;;;6.95;4.28;;;19.00;95.70;;;;;;4995463;28;20065;-52
2023/07/19 04:17:43;;;;;;;10.00;4.38;;;18.90;95.50;;;;;;4994015;28;20494;-48
2023/07/19 04:20:30;;;;;;;11.07;4.28;;;18.90;95.10;;;;;;4995300;28;20065;-53
2023/07/19 04:23:15;;;;;;;6.05;4.45;;;18.90;95.20;;;;;;4996346;28;20022;-54
2023/07/19 04:26:01;;;;;;;8.20;4.80;;;19.00;95.20;;;;;;4995463;28;20049;-55
2023/07/19 04:28:47;;;;;;;7.43;4.63;;;19.00;95.00;;;;;;4993545;28;20569;-51
2023/07/19 04:31:33;;;;;;;8.95;4.20;;;19.00;93.60;;;;;;4995046;28;20038;-51
2023/07/19 04:34:20;;;;;;;13.15;4.78;;;18.80;92.80;;;;;;4995523;28;20368;-54
2023/07/19 04:37:06;;;;;;;10.07;5.25;;;18.70;92.80;;;;;;4993112;28;20038;-52
2023/07/19 04:39:52;;;;;;;8.35;4.80;;;18.60;92.90;;;;;;4995608;28;20022;-50
2023/07/19 04:42:38;;;;;;;10.68;4.82;;;18.50;92.90;;;;;;4993030;28;20045;-52
2023/07/19 04:45:24;;;;;;;11.77;5.07;;;18.30;93.00;;;;;;4994648;28;20027;-48
2023/07/19 04:48:10;;;;;;;9.90;4.97;;;18.20;93.10;;;;;;4992832;28;20509;-51
2023/07/19 04:50:56;;;;;;;6.63;4.60;;;18.20;93.10;;;;;;4994037;28;20037;-52
2023/07/19 04:53:42;;;;;;;6.15;4.63;;;18.20;93.20;;;;;;4995377;28;20054;-54
2023/07/19 04:56:28;;;;;;;11.80;5.10;;;18.30;93.20;;;;;;4995437;28;20018;-53
2023/07/19 04:59:14;;;;;;;11.93;4.55;;;18.30;93.50;;;;;;4995177;28;20129;-55
2023/07/19 05:02:00;;;;;;;9.45;4.55;;;18.40;93.60;;;;;;5007180;28;20061;-55
2023/07/19 05:04:46;;;;;;;12.15;4.85;;;18.60;93.50;;;;;;4992700;28;20050;-53
2023/07/19 05:07:36;;;;;;;11.10;4.85;;;18.60;93.30;;;;;;4994152;28;20027;-52
2023/07/19 05:10:22;;;;;;;8.40;4.70;;;18.60;93.30;;;;;;4994107;28;20097;-54
2023/07/19 05:13:08;;;;;;;9.00;4.15;;;18.60;93.30;;;;;;4994002;28;20064;-48
2023/07/19 05:15:54;;;;;;;7.63;4.38;;;18.70;93.00;;;;;;4993198;28;20594;-52
2023/07/19 05:18:40;;;;;;;10.30;4.90;;;18.70;92.70;;;;;;4994073;28;20052;-50
2023/07/19 05:21:27;;;;;;;8.73;4.38;;;18.60;92.90;;;;;;4992558;28;20499;-54
2023/07/19 05:24:13;;;;;;;14.05;4.93;;;18.70;92.20;;;;;;4992555;28;20039;-51
2023/07/19 05:27:00;;;;;;;7.93;4.28;;;18.80;92.60;;;;;;4994368;28;20169;-54
2023/07/19 05:29:46;;;;;;;9.52;4.70;;;18.80;92.90;;;;;;4992986;28;20076;-51
2023/07/19 05:32:31;;;;;;;11.98;4.60;;;18.90;93.10;;;;;;4994658;28;20407;-52
2023/07/19 05:35:17;;;;;;;6.85;4.10;;;18.90;92.80;;;;;;4994389;28;20034;-52
2023/07/19 05:38:03;;;;;;;7.07;4.22;;;19.10;93.00;;;;;;4994165;28;20033;-53
2023/07/19 05:40:49;;;;;;;17.45;5.70;;;19.30;92.30;;;;;;4992338;28;20653;-51
2023/07/19 05:43:35;;;;;;;8.73;4.38;;;19.40;91.20;;;;;;4994428;28;20105;-54
2023/07/19 05:46:21;;;;;;;8.38;4.90;;;19.50;91.00;;;;;;4993951;28;20120;-53
2023/07/19 05:49:07;;;;;;;9.85;4.30;;;19.50;91.10;;;;;;4993164;28;20030;-55
2023/07/19 05:51:53;;;;;;;9.27;4.60;;;19.50;90.80;;;;;;4994308;28;20085;-55
2023/07/19 05:54:39;;;;;;;9.65;4.72;;;19.30;90.20;;;;;;4993638;28;20058;-49
2023/07/19 05:57:25;;;;;;;14.65;4.50;;;19.30;90.50;;;;;;4993884;28;20117;-49
2023/07/19 06:00:22;;;;;;;10.50;4.40;;;19.40;90.10;;;;;;4993003;28;20471;-51
2023/07/19 06:03:08;;;;;;;11.77;3.95;;;19.50;89.70;;;;;;4993434;28;20030;-49
2023/07/19 06:05:54;;;;;;;5.10;4.10;;;19.60;89.80;;;;;;4994033;28;20026;-53
2023/07/19 06:08:40;;;;;;;6.13;4.38;;;19.70;89.30;;;;;;5004118;28;20447;-54
2023/07/19 06:11:26;;;;;;;6.93;4.07;;;19.90;88.90;;;;;;5006105;28;20030;-54
2023/07/19 06:14:12;;;;;;;8.20;3.97;;;20.00;88.90;;;;;;4994343;28;20022;-53
2023/07/19 06:16:58;;;;;;;10.70;4.43;;;20.10;88.60;;;;;;4993343;28;20030;-53
2023/07/19 06:19:44;;;;;;;12.32;4.88;;;20.20;88.40;;;;;;5006607;28;20026;-53
2023/07/19 06:22:31;;;;;;;8.13;3.90;;;20.30;88.70;;;;;;4997143;28;20077;-43
2023/07/19 06:25:17;;;;;;;8.55;3.95;;;20.30;89.00;;;;;;4993494;28;20112;-53
2023/07/19 06:28:03;;;;;;;13.52;4.70;;;20.40;89.30;;;;;;4993817;28;20030;-47
2023/07/19 06:30:49;;;;;;;9.38;4.15;;;20.40;89.70;;;;;;4994345;28;20049;-47
2023/07/19 06:33:35;;;;;;;8.90;3.97;;;20.40;89.90;;;;;;4991578;28;20042;-49
2023/07/19 06:36:21;;;;;;;6.75;4.47;;;20.70;90.10;;;;;;4993666;28;20426;-45
2023/07/19 06:39:07;;;;;;;7.43;4.07;;;20.80;89.10;;;;;;4993207;28;20033;-54
2023/07/19 06:41:53;;;;;;;17.00;5.18;;;20.80;89.50;;;;;;4993443;28;20037;-48
2023/07/19 06:44:39;;;;;;;12.07;4.38;;;21.00;89.30;;;;;;4991142;28;20026;-51
2023/07/19 06:47:26;;;;;;;12.43;4.22;;;21.00;88.30;;;;;;4991807;28;20030;-44
2023/07/19 06:50:12;;;;;;;6.88;4.57;;;20.90;88.20;;;;;;4993364;28;20030;-46
2023/07/19 06:53:00;;;;;;;10.52;4.25;;;21.20;87.50;;;;;;4993261;28;20062;-47
2023/07/19 06:55:45;;;;;;;8.63;4.30;;;21.30;86.90;;;;;;4992242;28;20033;-47
2023/07/19 06:58:31;;;;;;;9.55;4.25;;;21.50;86.60;;;;;;5003502;28;20491;-47
2023/07/19 07:01:17;;;;;;;10.07;3.95;;;21.60;85.80;;;;;;4993179;28;20038;-48
2023/07/19 07:04:03;;;;;;;8.98;4.05;;;21.70;84.60;;;;;;4992541;28;20491;-46
2023/07/19 07:06:49;;;;;;;7.57;4.32;;;21.70;85.10;;;;;;4992589;28;20038;-45
2023/07/19 07:09:36;;;;;;;6.68;4.10;;;21.80;85.10;;;;;;5003877;28;20034;-45
2023/07/19 07:12:22;;;;;;;11.10;3.97;;;21.90;85.00;;;;;;4991881;28;20031;-46
2023/07/19 07:15:08;;;;;;;9.98;3.97;;;22.00;83.80;;;;;;4990907;28;20483;-45
2023/07/19 07:17:54;;;;;;;11.63;4.93;;;21.90;83.50;;;;;;4993102;28;20483;-44
2023/07/19 07:20:40;;;;;;;12.32;4.38;;;21.90;83.40;;;;;;4991115;28;20121;-51
2023/07/19 07:23:26;;;;;;;16.58;4.95;;;21.90;83.50;;;;;;5003746;28;20085;-46
2023/07/19 07:26:12;;;;;;;11.70;4.00;;;22.00;83.50;;;;;;4993093;28;20069;-46
2023/07/19 07:28:58;;;;;;;8.38;4.00;;;22.00;82.70;;;;;;4994254;28;20403;-44
2023/07/19 07:31:44;;;;;;;11.57;3.85;;;22.00;82.50;;;;;;4996741;28;20030;-44
2023/07/19 07:34:30;;;;;;;8.77;3.95;;;22.20;82.10;;;;;;4995449;28;20040;-45
2023/07/19 07:37:16;;;;;;;5.45;3.90;;;22.30;80.90;;;;;;4996550;28;20494;-44
2023/07/19 07:40:03;;;;;;;9.82;3.65;;;22.40;80.30;;;;;;5008784;28;20506;-45
2023/07/19 07:42:49;;;;;;;8.15;3.72;;;22.50;80.20;;;;;;4995456;28;20027;-49
2023/07/19 07:45:35;;;;;;;8.55;3.95;;;22.60;79.60;;;;;;4996466;28;20034;-49
2023/07/19 07:48:23;;;;;;;7.82;3.60;;;22.80;80.00;;;;;;4993973;28;20033;-48
2023/07/19 07:51:11;;;;;;;8.40;3.50;;;23.00;80.50;;;;;;4995978;28;20038;-48
2023/07/19 07:53:56;;;;;;;8.15;3.40;;;23.20;77.90;;;;;;4997235;28;20022;-50
2023/07/19 07:56:42;;;;;;;13.02;3.97;;;23.30;75.90;;;;;;4997049;28;20037;-46
2023/07/19 07:59:28;;;;;;;6.05;3.58;;;23.40;74.60;;;;;;4996605;28;20114;-45
2023/07/19 08:02:14;;;;;;;7.95;4.15;;;23.60;74.70;;;;;;4996805;28;20042;-47
2023/07/19 08:05:00;;;;;;;6.10;3.60;;;23.70;73.80;;;;;;4996249;28;20142;-46
2023/07/19 08:07:46;;;;;;;11.20;3.88;;;23.70;74.20;;;;;;4993913;28;20122;-47
2023/07/19 08:10:33;;;;;;;6.47;4.60;;;23.80;74.90;;;;;;4996101;28;20089;-50
2023/07/19 08:13:19;;;;;;;14.40;4.40;;;24.00;73.60;;;;;;5006819;28;20019;-48
2023/07/19 08:16:06;;;;;;;5.70;4.20;;;24.30;73.40;;;;;;4996193;28;20495;-44
2023/07/19 08:18:52;;;;;;;5.60;3.78;;;24.40;72.50;;;;;;4994801;28;20054;-52
2023/07/19 08:21:38;;;;;;;9.73;3.90;;;24.50;71.50;;;;;;4994689;28;20069;-55
2023/07/19 08:24:24;;;;;;;8.70;3.58;;;24.70;72.10;;;;;;4994714;28;20022;-55
2023/07/19 08:27:10;;;;;;;8.45;3.80;;;24.80;71.20;;;;;;4993186;28;20034;-50
2023/07/19 08:29:56;;;;;;;7.97;3.60;;;24.90;71.40;;;;;;4994690;28;20030;-46
2023/07/19 08:32:45;;;;;;;8.73;4.05;;;24.90;72.10;;;;;;4994671;28;20483;-49
2023/07/19 08:35:31;;;;;;;12.25;4.60;;;24.80;70.80;;;;;;4994528;28;20100;-51
2023/07/19 08:38:18;;;;;;;7.57;3.88;;;24.90;70.70;;;;;;4994562;28;20049;-46
2023/07/19 08:41:05;;;;;;;7.75;4.45;;;24.90;70.20;;;;;;4993205;28;20101;-46
2023/07/19 08:43:55;;;;;;;11.18;5.10;;;25.20;69.70;;;;;;4994689;28;20030;-51
2023/07/19 08:46:43;;;;;;;8.43;4.38;;;25.00;69.10;;;;;;4994204;28;20046;-48
2023/07/19 08:49:29;;;;;;;15.88;5.35;;;24.90;69.30;;;;;;4993823;28;20141;-52
2023/07/19 08:52:16;;;;;;;7.40;4.28;;;24.80;69.70;;;;;;4994414;28;20030;-50
2023/07/19 08:55:02;;;;;;;8.07;3.97;;;24.60;69.40;;;;;;4993006;28;20031;-48
2023/07/19 08:57:49;;;;;;;6.55;4.43;;;24.60;69.80;;;;;;4994848;28;20037;-49
2023/07/19 09:00:35;;;;;;;6.78;4.30;;;24.80;69.70;;;;;;4994901;28;20052;-51
2023/07/19 09:03:21;;;;;;;6.05;3.95;;;25.00;68.50;;;;;;4994488;28;20042;-53
2023/07/19 09:06:07;;;;;;;7.35;4.07;;;25.20;68.60;;;;;;4994326;28;20033;-52
2023/07/19 09:08:54;;;;;;;13.32;4.72;;;25.10;68.00;;;;;;4995305;28;20105;-47
2023/07/19 09:11:47;;;;;;;7.22;3.70;;;25.10;67.30;;;;;;4996661;28;20096;-48
2023/07/19 09:14:36;;;;;;;5.80;3.42;;;25.20;66.90;;;;;;4993237;28;20101;-47
2023/07/19 09:17:22;;;;;;;4.70;3.38;;;25.40;66.00;;;;;;4993751;28;20114;-51
2023/07/19 09:20:09;;;;;;;6.90;3.45;;;25.40;65.30;;;;;;4993331;28;20037;-50
2023/07/19 09:22:58;;;;;;;5.78;3.58;;;25.40;66.60;;;;;;4993701;28;20038;-49
2023/07/19 09:25:55;;;;;;;6.15;3.90;;;25.60;66.90;;;;;;4993617;28;20117;-48
2023/07/19 09:28:41;;;;;;;5.47;3.45;;;25.60;67.20;;;;;;4993661;28;20491;-46
2023/07/19 09:31:26;;;;;;;6.00;3.97;;;25.50;66.60;;;;;;4993196;28;20113;-46
2023/07/19 09:34:12;;;;;;;7.10;3.92;;;25.30;67.00;;;;;;4993774;28;20031;-53
2023/07/19 09:36:59;;;;;;;5.88;3.58;;;25.30;66.50;;;;;;4993043;28;20030;-51
2023/07/19 09:39:45;;;;;;;6.88;3.70;;;25.20;67.00;;;;;;4993377;28;20502;-53
2023/07/19 09:42:36;;;;;;;5.32;3.50;;;25.30;66.90;;;;;;4993278;28;20034;-49
2023/07/19 09:45:25;;;;;;;5.43;3.65;;;25.40;67.30;;;;;;4993443;28;20435;-50
2023/07/19 09:48:12;;;;;;;4.32;3.60;;;25.50;67.30;;;;;;4993229;28;20085;-45
2023/07/19 09:51:02;;;;;;;6.00;3.72;;;25.40;66.30;;;;;;4992829;28;20034;-50
2023/07/19 09:53:50;;;;;;;6.82;3.85;;;25.70;66.60;;;;;;4993144;28;20615;-50
2023/07/19 09:56:38;;;;;;;5.05;3.90;;;25.90;66.60;;;;;;4992727;28;20031;-46
2023/07/19 09:59:37;;;;;;;6.95;3.70;;;26.00;66.70;;;;;;4992908;28;20113;-45
2023/07/19 10:02:24;;;;;;;9.15;4.30;;;26.10;66.60;;;;;;4992549;28;20026;-48
2023/07/19 10:05:10;;;;;;;8.15;4.40;;;26.10;66.90;;;;;;4992925;28;20026;-50
2023/07/19 10:08:05;;;;;;;4.57;3.78;;;26.30;66.30;;;;;;4992713;28;20140;-47
2023/07/19 10:11:00;;;;;;;7.65;4.25;;;26.30;65.30;;;;;;4992705;28;20034;-48
2023/07/19 10:13:56;;;;;;;6.18;3.90;;;26.20;66.00;;;;;;4992652;28;20030;-49
2023/07/19 10:16:48;;;;;;;6.22;4.03;;;26.40;66.10;;;;;;4993035;28;20030;-47
2023/07/19 10:19:35;;;;;;;6.15;3.90;;;26.70;66.30;;;;;;4992110;28;20483;-49
2023/07/19 10:22:21;;;;;;;6.07;3.65;;;26.50;66.00;;;;;;4992299;28;20130;-44
2023/07/19 10:25:07;;;;;;;8.07;3.92;;;26.40;64.80;;;;;;4992190;28;20085;-48
2023/07/19 10:27:59;;;;;;;9.45;4.40;;;26.20;65.00;;;;;;4991773;28;20026;-49
2023/07/19 10:30:52;;;;;;;5.95;3.92;;;26.30;64.90;;;;;;4992086;28;20030;-48
2023/07/19 10:33:39;;;;;;;;;;;26.60;64.90;;;;;;4992952;28;20051;-47
2023/07/19 10:36:25;;;;;;;6.90;4.00;;;26.60;64.40;;;;;;4992389;28;19906;-49
2023/07/19 10:39:11;;;;;;;5.65;3.72;;;26.90;64.60;;;;;;4992295;28;20169;-53
2023/07/19 10:41:58;;;;;;;5.03;3.83;;;27.00;64.30;;;;;;4991304;28;20410;-48
2023/07/19 10:44:44;;;;;;;6.28;3.70;;;26.80;64.20;;;;;;4992367;28;20030;-46
2023/07/19 10:47:30;;;;;;;6.18;3.55;;;26.60;64.10;;;;;;4992187;28;20039;-47
2023/07/19 10:50:17;;;;;;;6.70;3.67;;;26.60;64.00;;;;;;4991684;28;20041;-49
2023/07/19 10:53:03;;;;;;;5.18;3.53;;;26.80;63.90;;;;;;4992187;28;20150;-47
2023/07/19 10:55:56;;;;;;;6.05;3.63;;;26.70;63.90;;;;;;4992164;28;20031;-50
2023/07/19 10:58:45;;;;;;;4.53;3.30;;;26.70;63.90;;;;;;4991288;28;20098;-46
2023/07/19 11:01:32;;;;;;;6.38;3.70;;;26.70;64.10;;;;;;4992160;28;20039;-45
2023/07/19 11:04:18;;;;;;;6.32;3.58;;;26.70;64.00;;;;;;4995810;28;20030;-48
2023/07/19 11:07:05;;;;;;;7.18;3.80;;;26.50;64.40;;;;;;4996083;28;20030;-50
2023/07/19 11:09:51;;;;;;;8.13;3.90;;;26.60;63.20;;;;;;4996100;28;20033;-46
2023/07/19 11:12:37;;;;;;;8.90;3.88;;;26.60;62.60;;;;;;4995694;28;20034;-50
2023/07/19 11:15:27;;;;;;;6.57;3.78;;;26.40;62.90;;;;;;4996143;28;20018;-44
2023/07/19 11:18:13;;;;;;;6.00;3.70;;;26.20;63.20;;;;;;4995524;28;20019;-51
2023/07/19 11:20:59;;;;;;;5.43;3.63;;;26.00;63.70;;;;;;4996089;28;20089;-48
2023/07/19 11:23:45;;;;;;;6.57;3.17;;;26.00;63.60;;;;;;4995376;28;20031;-52
2023/07/19 11:26:31;;;;;;;5.43;3.70;;;26.10;63.60;;;;;;4981637;28;20501;-50
2023/07/19 11:29:18;;;;;;;5.00;3.75;;;26.20;64.10;;;;;;4995192;28;20022;-50
2023/07/19 11:32:21;;;;;;;7.10;4.07;;;26.30;64.60;;;;;;4996266;28;20065;-48
2023/07/19 11:35:07;;;;;;;8.25;3.97;;;26.40;64.40;;;;;;4995674;28;20430;-46
2023/07/19 11:37:53;;;;;;;5.82;3.78;;;26.60;64.70;;;;;;4995491;28;20026;-50
2023/07/19 11:40:43;;;;;;;7.85;4.00;;;26.40;64.20;;;;;;4995744;28;20038;-50
2023/07/19 11:43:29;;;;;;;7.13;3.80;;;26.30;65.00;;;;;;4995846;28;20300;-48
2023/07/19 11:46:15;;;;;;;7.03;3.30;;;26.30;65.30;;;;;;4995967;28;20122;-47
2023/07/19 11:49:02;;;;;;;7.30;3.50;;;26.10;64.30;;;;;;4997823;28;20113;-45
2023/07/19 11:51:48;;;;;;;5.22;3.95;;;25.90;64.40;;;;;;4994248;28;20038;-48
2023/07/19 11:54:34;;;;;;;4.20;3.47;;;25.80;65.20;;;;;;4995366;28;20019;-48
2023/07/19 11:57:20;;;;;;;6.75;3.55;;;25.60;65.70;;;;;;4995226;28;20023;-49
2023/07/19 12:00:07;;;;;;;7.97;3.40;;;25.40;65.90;;;;;;4995181;28;20069;-46
2023/07/19 12:02:53;;;;;;;4.93;3.47;;;25.40;66.20;;;;;;4995135;28;20058;-47
2023/07/19 12:05:40;;;;;;;5.78;3.47;;;25.30;65.90;;;;;;4994953;28;20085;-47
2023/07/19 12:08:26;;;;;;;6.00;3.35;;;25.20;66.40;;;;;;4994358;28;20622;-44
2023/07/19 12:11:12;;;;;;;6.20;3.40;;;25.10;66.30;;;;;;4993969;28;20030;-51
2023/07/19 12:13:58;;;;;;;4.53;3.60;;;25.10;66.50;;;;;;4994032;28;20061;-47
2023/07/19 12:16:44;;;;;;;4.75;3.22;;;25.20;66.30;;;;;;4994848;28;20031;-45
2023/07/19 12:19:30;;;;;;;8.93;3.50;;;25.10;66.70;;;;;;4994789;28;20023;-54
2023/07/19 12:22:17;;;;;;;4.40;3.35;;;25.20;66.70;;;;;;4995014;28;20037;-55
2023/07/19 12:25:03;;;;;;;4.50;3.08;;;25.20;66.40;;;;;;4994686;28;20038;-55
2023/07/19 12:27:52;;;;;;;4.30;3.03;;;25.20;66.40;;;;;;4994675;28;20030;-51
2023/07/19 12:30:39;;;;;;;7.18;3.60;;;25.20;67.10;;;;;;4995025;28;20066;-52
2023/07/19 12:33:25;;;;;;;5.68;3.72;;;25.10;67.60;;;;;;4995096;28;20019;-55
2023/07/19 12:36:11;;;;;;;7.35;3.65;;;25.20;67.90;;;;;;4994451;28;20050;-50
2023/07/19 12:38:57;;;;;;;8.13;3.97;;;25.10;68.00;;;;;;4994386;28;20037;-53
2023/07/19 12:41:44;;;;;;;11.35;4.03;;;24.80;68.20;;;;;;4994447;28;20030;-51
2023/07/19 12:44:30;;;;;;;6.13;3.70;;;24.90;68.40;;;;;;4993974;28;20039;-55
2023/07/19 12:47:17;;;;;;;7.20;3.90;;;24.80;68.90;;;;;;4993509;28;20117;-52
2023/07/19 12:50:05;;;;;;;6.43;3.97;;;24.80;69.70;;;;;;4993714;28;20356;-54
2023/07/19 12:52:51;;;;;;;5.78;3.95;;;24.80;69.90;;;;;;4993753;28;20498;-54
2023/07/19 12:55:37;;;;;;;5.03;3.42;;;24.80;69.70;;;;;;4993589;28;20113;-50
2023/07/19 12:58:23;;;;;;;7.28;3.90;;;24.70;69.80;;;;;;4993958;28;20125;-53
2023/07/19 13:01:09;;;;;;;4.32;3.30;;;24.70;69.20;;;;;;4994317;28;20109;-55
2023/07/19 13:03:55;;;;;;;9.35;3.88;;;24.60;68.80;;;;;;4994233;28;20026;-51
2023/07/19 13:06:41;;;;;;;9.38;3.83;;;24.40;69.00;;;;;;4993612;28;20034;-52
2023/07/19 13:09:27;;;;;;;4.63;3.70;;;24.40;69.60;;;;;;4994232;28;20027;-53
2023/07/19 13:12:14;;;;;;;7.20;3.53;;;24.20;70.30;;;;;;4994260;28;20360;-51
2023/07/19 13:15:00;;;;;;;7.53;3.70;;;24.00;71.20;;;;;;4994513;28;20030;-49
2023/07/19 13:17:46;;;;;;;9.77;3.80;;;23.30;78.60;;;;;;4992553;28;20029;-55
2023/07/19 13:20:32;;;;;;;6.32;3.60;;;22.60;82.70;;;;;;4993829;28;20030;-54
2023/07/19 13:23:18;;;;;;;10.02;3.42;;;21.90;87.00;;;;;;4993365;28;20037;-52
2023/07/19 13:26:04;;;;;;;5.60;3.28;;;21.20;91.10;;;;;;4993357;28;20027;-55
2023/07/19 13:28:50;;;;;;;7.65;3.58;;;21.00;92.20;;;;;;4993479;28;20034;-53
2023/07/19 13:31:36;;;;;;;7.70;3.85;;;20.80;93.10;;;;;;4993430;28;20117;-56
2023/07/19 13:34:22;;;;;;;6.03;3.03;;;20.70;94.60;;;;;;4993581;28;20030;-55
2023/07/19 13:37:08;;;;;;;8.48;3.72;;;20.90;94.50;;;;;;4992015;28;20033;-49
2023/07/19 13:39:54;;;;;;;4.93;3.30;;;20.90;94.90;;;;;;4993378;28;20438;-51
2023/07/19 13:42:40;;;;;;;10.85;3.83;;;21.00;95.20;;;;;;4993456;28;20030;-53
2023/07/19 13:45:26;;;;;;;6.82;3.67;;;21.20;95.00;;;;;;4993364;28;20023;-53
2023/07/19 13:48:12;;;;;;;5.95;3.90;;;21.00;95.60;;;;;;4992252;28;20038;-52
2023/07/19 13:50:58;;;;;;;5.32;3.42;;;21.10;96.00;;;;;;4991517;28;20105;-55
2023/07/19 13:53:44;;;;;;;8.45;3.53;;;21.10;96.10;;;;;;4993006;28;20030;-50
2023/07/19 13:56:30;;;;;;;5.80;3.63;;;21.30;96.40;;;;;;4991665;28;20042;-50
2023/07/19 13:59:16;;;;;;;5.80;3.30;;;21.50;95.70;;;;;;4992476;28;20391;-53
2023/07/19 14:02:03;;;;;;;6.22;3.53;;;21.50;95.80;;;;;;4992626;28;20026;-54
2023/07/19 14:04:49;;;;;;;8.20;3.67;;;21.20;96.30;;;;;;4993659;28;20038;-49
2023/07/19 14:07:35;;;;;;;5.47;3.08;;;21.00;95.90;;;;;;4993086;28;20510;-48
2023/07/19 14:10:21;;;;;;;4.82;3.60;;;20.70;97.20;;;;;;4993901;28;20060;-44
2023/07/19 14:13:07;;;;;;;4.53;3.65;;;20.50;98.20;;;;;;4992827;28;20023;-46
2023/07/19 14:15:53;;;;;;;5.05;3.70;;;20.30;99.00;;;;;;4992134;28;20109;-45
2023/07/19 14:18:39;;;;;;;6.05;3.63;;;20.20;99.30;;;;;;4992530;28;20030;-46
2023/07/19 14:21:25;;;;;;;4.85;3.42;;;20.10;99.90;;;;;;4992139;28;20030;-47
2023/07/19 14:24:11;;;;;;;6.00;3.85;;;20.10;99.90;;;;;;4992420;28;20030;-47